createdAt,value
2019-03-18T00:01:44.753Z,79.89
2019-03-18T00:04:11.266Z,80.08
2019-03-18T00:06:37.939Z,79.76
2019-03-18T00:09:08.401Z,79.61
2019-03-18T00:11:34.925Z,79.07
2019-03-18T00:14:01.604Z,78.85
2019-03-18T00:16:28.104Z,78.92
2019-03-18T00:18:54.608Z,78.37
2019-03-18T00:21:21.293Z,77.15
2019-03-18T00:23:50.823Z,76.48
2019-03-18T00:26:17.347Z,76.67
2019-03-18T00:32:24.041Z,76.69
2019-03-18T00:34:50.501Z,75.63
2019-03-18T00:37:16.977Z,75.22
2019-03-18T00:39:43.532Z,75.12
2019-03-18T00:42:10.006Z,74.09
2019-03-18T00:45:31.962Z,73.91
2019-03-18T00:47:59.829Z,74.56
2019-03-18T00:50:26.360Z,74.59
2019-03-18T00:56:33.333Z,75.38
2019-03-18T00:59:00.152Z,75.53
2019-03-18T01:01:26.737Z,76.01
2019-03-18T01:04:11.956Z,76.53
2019-03-18T01:06:38.564Z,76.61
2019-03-18T01:09:05.413Z,76.90
2019-03-18T01:11:31.896Z,77.53
2019-03-18T01:13:58.425Z,77.64
2019-03-18T01:16:24.945Z,77.91
2019-03-18T01:18:51.583Z,78.11
2019-03-18T01:21:18.539Z,78.30
2019-03-18T01:23:47.319Z,78.32
2019-03-18T01:26:13.846Z,78.37
2019-03-18T01:28:40.345Z,78.35
2019-03-18T01:31:09.243Z,78.92
2019-03-18T01:33:35.739Z,78.45
2019-03-18T01:36:02.244Z,78.41
2019-03-18T01:38:32.111Z,78.12
2019-03-18T01:41:01.461Z,77.80
2019-03-18T01:43:28.089Z,77.57
2019-03-18T01:49:34.515Z,77.39
2019-03-18T01:52:01.667Z,77.78
2019-03-18T01:54:28.174Z,77.53
2019-03-18T01:56:54.711Z,77.55
2019-03-18T01:59:21.806Z,77.38
2019-03-18T02:01:50.615Z,77.40
2019-03-18T02:04:17.148Z,77.65
2019-03-18T02:06:43.705Z,77.50
2019-03-18T02:09:13.088Z,77.65
2019-03-18T02:11:39.624Z,77.50
2019-03-18T02:14:08.081Z,77.27
2019-03-18T02:17:29.882Z,77.50
2019-03-18T02:19:57.906Z,77.41
2019-03-18T02:22:24.719Z,77.66
2019-03-18T02:24:51.206Z,77.67
2019-03-18T02:27:17.733Z,77.89
2019-03-18T02:29:44.218Z,78.10
2019-03-18T02:32:10.747Z,78.11
2019-03-18T02:34:39.872Z,78.41
2019-03-18T02:37:06.777Z,78.63
2019-03-18T02:43:13.484Z,78.41
2019-03-18T02:45:39.998Z,78.66
2019-03-18T02:48:07.460Z,78.69
2019-03-18T02:54:14.170Z,78.70
2019-03-18T02:56:40.727Z,78.89
2019-03-18T02:59:07.870Z,78.87
2019-03-18T03:01:34.490Z,78.99
2019-03-18T03:04:01.255Z,78.95
2019-03-18T03:06:30.698Z,79.08
2019-03-18T03:08:59.291Z,78.96
2019-03-18T03:11:28.418Z,78.99
2019-03-18T03:17:38.222Z,78.62
2019-03-18T03:20:04.902Z,78.84
2019-03-18T03:23:01.244Z,78.41
2019-03-18T03:25:31.034Z,78.31
2019-03-18T03:27:57.576Z,78.23
2019-03-18T03:30:24.175Z,77.84
2019-03-18T03:32:57.968Z,77.74
2019-03-18T03:35:24.919Z,77.55
2019-03-18T03:37:52.030Z,77.91
2019-03-18T03:40:19.667Z,78.23
2019-03-18T03:42:46.470Z,77.87
2019-03-18T03:45:13.536Z,78.08
2019-03-18T03:47:58.867Z,78.30
2019-03-18T03:50:27.597Z,78.41
2019-03-18T03:52:54.811Z,77.50
2019-03-18T03:55:21.746Z,77.53
2019-03-18T03:57:49.700Z,76.85
2019-03-18T04:03:59.171Z,76.54
2019-03-18T04:06:27.430Z,76.57
2019-03-18T04:12:34.293Z,76.46
2019-03-18T04:18:42.653Z,76.68
2019-03-18T04:21:09.226Z,76.99
2019-03-18T04:23:37.748Z,77.34
2019-03-18T04:26:04.715Z,77.24
2019-03-18T04:28:34.036Z,77.49
2019-03-18T04:31:00.562Z,77.39
2019-03-18T04:33:29.291Z,77.00
2019-03-18T04:35:57.759Z,77.23
2019-03-18T04:42:04.169Z,77.45
2019-03-18T04:44:30.715Z,77.73
2019-03-18T04:46:58.842Z,78.04
2019-03-18T04:49:25.825Z,78.16
2019-03-18T04:51:53.242Z,78.20
2019-03-18T04:54:21.606Z,77.74
2019-03-18T05:00:19.960Z,78.00
2019-03-18T05:02:46.516Z,78.28
2019-03-18T05:05:20.378Z,78.38
2019-03-18T05:07:53.229Z,78.05
2019-03-18T05:10:22.298Z,77.59
2019-03-18T05:12:48.935Z,77.64
2019-03-18T05:15:15.588Z,77.30
2019-03-18T05:17:51.160Z,77.41
2019-03-18T05:20:20.243Z,77.60
2019-03-18T05:22:46.781Z,77.69
2019-03-18T05:25:13.428Z,77.69
2019-03-18T05:27:39.991Z,77.56
2019-03-18T05:30:07.015Z,77.33
2019-03-18T05:32:33.634Z,77.00
2019-03-18T05:35:00.371Z,76.90
2019-03-18T05:37:26.871Z,77.00
2019-03-18T05:39:53.380Z,77.23
2019-03-18T05:42:19.862Z,77.39
2019-03-18T05:45:41.328Z,77.42
2019-03-18T05:48:08.477Z,77.40
2019-03-18T05:50:38.433Z,77.72
2019-03-18T05:53:05.007Z,77.75
2019-03-18T05:55:34.550Z,77.90
2019-03-18T05:58:01.159Z,77.87
2019-03-18T06:00:30.679Z,77.63
2019-03-18T06:02:57.502Z,77.70
2019-03-18T06:05:24.015Z,77.48
2019-03-18T06:07:50.558Z,77.21
2019-03-18T06:11:11.937Z,76.59
2019-03-18T06:13:38.507Z,76.53
2019-03-18T06:16:07.089Z,75.47
2019-03-18T06:18:33.708Z,73.75
2019-03-18T06:21:00.840Z,73.57
2019-03-18T06:27:08.198Z,72.36
2019-03-18T06:29:34.854Z,72.31
2019-03-18T06:32:01.392Z,71.82
2019-03-18T06:35:22.792Z,71.59
2019-03-18T06:37:51.886Z,71.02
2019-03-18T06:40:18.399Z,70.14
2019-03-18T06:42:45.006Z,69.35
2019-03-18T06:45:12.009Z,68.23
2019-03-18T06:47:41.726Z,67.69
2019-03-18T06:50:08.406Z,67.26
2019-03-18T06:52:34.892Z,67.46
2019-03-18T06:55:01.497Z,67.39
2019-03-18T06:57:28.490Z,67.28
2019-03-18T06:59:55.032Z,67.33
2019-03-18T07:02:21.626Z,67.30
2019-03-18T07:04:48.242Z,66.78
2019-03-18T07:07:15.170Z,67.27
2019-03-18T07:09:41.715Z,67.18
2019-03-18T07:12:08.293Z,67.48
2019-03-18T07:14:34.972Z,67.26
2019-03-18T07:17:01.957Z,66.97
2019-03-18T07:19:28.469Z,66.38
2019-03-18T07:22:00.751Z,66.12
2019-03-18T07:28:10.284Z,65.75
2019-03-18T07:30:39.680Z,65.70
2019-03-18T07:33:06.584Z,65.96
2019-03-18T07:35:33.470Z,65.89
2019-03-18T07:38:00.697Z,66.48
2019-03-18T07:40:27.944Z,65.54
2019-03-18T07:42:54.806Z,65.81
2019-03-18T07:49:01.592Z,65.70
2019-03-18T07:51:31.665Z,65.96
2019-03-18T07:53:58.720Z,65.94
2019-03-18T07:57:02.158Z,65.76
2019-03-18T07:59:29.767Z,65.61
2019-03-18T08:02:04.998Z,65.37
2019-03-18T08:04:42.325Z,64.92
2019-03-18T08:07:52.233Z,65.23
2019-03-18T08:10:18.802Z,64.25
2019-03-18T08:12:45.442Z,64.66
2019-03-18T08:16:07.474Z,64.36
2019-03-18T08:18:43.042Z,64.64
2019-03-18T08:21:03.188Z,64.75
2019-03-18T08:27:09.907Z,64.93
2019-03-18T08:29:36.496Z,64.65
2019-03-18T08:32:46.872Z,65.25
2019-03-18T08:35:13.488Z,65.52
2019-03-18T08:37:40.065Z,64.46
2019-03-18T08:40:07.354Z,63.61
2019-03-18T08:42:34.154Z,61.80
2019-03-18T08:48:40.516Z,59.70
2019-03-18T08:51:07.100Z,58.03
2019-03-18T08:53:33.690Z,58.57
2019-03-18T08:56:01.481Z,61.03
2019-03-18T08:58:28.072Z,62.37
2019-03-18T09:00:54.790Z,63.16
2019-03-18T09:03:21.335Z,63.45
2019-03-18T09:05:47.969Z,63.08
2019-03-18T09:08:14.828Z,61.37
2019-03-18T09:11:36.534Z,60.37
2019-03-18T09:14:03.678Z,60.09
2019-03-18T09:16:30.292Z,60.75
2019-03-18T09:19:08.151Z,60.91
2019-03-18T09:21:25.857Z,59.69
2019-03-18T09:23:52.654Z,60.23
2019-03-18T09:26:19.457Z,61.90
2019-03-18T09:28:46.037Z,63.40
2019-03-18T09:31:12.869Z,64.16
2019-03-18T09:33:39.592Z,65.24
2019-03-18T09:37:01.147Z,65.08
2019-03-18T09:39:27.644Z,64.55
2019-03-18T09:41:54.252Z,62.56
2019-03-18T09:44:20.873Z,60.47
2019-03-18T09:46:47.504Z,59.15
2019-03-18T09:49:21.558Z,59.60
2019-03-18T09:51:43.000Z,59.63
2019-03-18T09:54:09.682Z,60.96
2019-03-18T09:56:37.128Z,61.23
2019-03-18T09:59:03.873Z,61.25
2019-03-18T10:01:30.683Z,61.72
2019-03-18T10:03:57.658Z,62.23
2019-03-18T10:06:24.248Z,62.33
2019-03-18T10:08:50.845Z,61.98
2019-03-18T10:11:17.426Z,61.50
2019-03-18T10:13:44.069Z,60.58
2019-03-18T10:16:13.354Z,60.38
2019-03-18T10:18:39.992Z,57.87
2019-03-18T10:21:06.749Z,55.87
2019-03-18T10:23:33.604Z,52.92
2019-03-18T10:26:00.130Z,50.48
2019-03-18T10:28:26.849Z,50.37
2019-03-18T10:34:33.829Z,49.15
2019-03-18T10:37:00.833Z,48.41
2019-03-18T10:39:27.601Z,47.70
2019-03-18T10:41:54.283Z,49.04
2019-03-18T10:44:21.310Z,48.74
2019-03-18T10:46:48.061Z,49.74
2019-03-18T10:49:14.584Z,49.48
2019-03-18T10:51:43.178Z,47.79
2019-03-18T10:54:09.931Z,47.77
2019-03-18T10:56:36.551Z,49.33
2019-03-18T10:59:03.292Z,49.16
2019-03-18T11:02:24.990Z,48.41
2019-03-18T11:04:51.694Z,48.55
2019-03-18T11:07:18.375Z,48.26
2019-03-18T11:09:45.385Z,47.67
2019-03-18T11:12:11.943Z,48.38
2019-03-18T11:15:33.916Z,50.28
2019-03-18T11:18:00.836Z,50.41
2019-03-18T11:20:27.528Z,52.57
2019-03-18T11:22:54.756Z,53.80
2019-03-18T11:25:21.358Z,55.31
2019-03-18T11:27:48.400Z,65.17
2019-03-18T11:30:15.244Z,71.68
2019-03-18T11:36:21.815Z,79.91
2019-03-18T11:38:48.607Z,80.46
2019-03-18T11:41:17.386Z,78.19
2019-03-18T11:47:23.660Z,73.04
2019-03-18T11:49:50.499Z,71.46
2019-03-18T11:52:17.115Z,70.32
2019-03-18T11:54:43.974Z,67.57
2019-03-18T11:57:10.703Z,68.82
2019-03-18T11:59:37.362Z,67.27
2019-03-18T12:02:04.352Z,63.25
2019-03-18T12:04:32.833Z,63.75
2019-03-18T12:06:59.519Z,61.99
2019-03-18T12:09:26.090Z,62.90
2019-03-18T12:11:52.862Z,62.42
2019-03-18T12:14:19.615Z,61.69
2019-03-18T12:16:46.281Z,60.34
2019-03-18T12:19:12.896Z,59.67
2019-03-18T12:21:39.569Z,58.00
2019-03-18T12:24:06.309Z,56.46
2019-03-18T12:26:32.929Z,54.21
2019-03-18T12:28:59.508Z,55.32
2019-03-18T12:31:26.067Z,52.02
2019-03-18T12:33:52.734Z,52.79
2019-03-18T12:36:19.419Z,52.10
2019-03-18T12:38:46.279Z,50.26
2019-03-18T12:41:12.815Z,51.13
2019-03-18T12:43:39.551Z,55.72
2019-03-18T12:46:06.705Z,58.45
2019-03-18T12:48:33.296Z,60.55
2019-03-18T12:52:13.254Z,62.39
2019-03-18T12:54:39.929Z,62.77
2019-03-18T12:57:06.535Z,63.97
2019-03-18T12:59:33.895Z,64.73
2019-03-18T13:02:01.041Z,64.42
2019-03-18T13:08:08.261Z,63.34
2019-03-18T13:10:34.910Z,61.03
2019-03-18T13:13:01.676Z,61.04
2019-03-18T13:15:29.312Z,60.16
2019-03-18T13:17:56.411Z,60.15
2019-03-18T13:20:23.130Z,60.36
2019-03-18T13:22:52.347Z,59.70
2019-03-18T13:26:13.650Z,57.59
2019-03-18T13:28:40.373Z,59.30
2019-03-18T13:31:07.080Z,58.81
2019-03-18T13:33:33.588Z,58.74
2019-03-18T13:36:55.186Z,59.01
2019-03-18T13:39:21.787Z,57.50
2019-03-18T13:41:48.432Z,58.12
2019-03-18T13:44:15.205Z,59.55
2019-03-18T13:47:01.868Z,60.05
2019-03-18T13:49:30.275Z,60.08
2019-03-18T13:51:56.821Z,61.95
2019-03-18T13:54:23.844Z,63.57
2019-03-18T13:56:51.791Z,66.85
2019-03-18T13:59:18.424Z,69.80
2019-03-18T14:01:45.014Z,70.77
2019-03-18T14:04:11.680Z,70.82
2019-03-18T14:06:57.827Z,70.26
2019-03-18T14:10:19.791Z,69.06
2019-03-18T14:16:26.826Z,66.09
2019-03-18T14:18:55.431Z,67.51
2019-03-18T14:21:32.790Z,65.01
2019-03-18T14:23:50.753Z,64.10
2019-03-18T14:26:17.293Z,64.32
2019-03-18T14:29:39.222Z,62.06
2019-03-18T14:32:06.840Z,58.13
2019-03-18T14:34:34.158Z,58.31
2019-03-18T14:37:01.467Z,58.50
2019-03-18T14:39:30.741Z,58.48
2019-03-18T14:42:01.346Z,58.04
2019-03-18T14:48:09.505Z,58.69
2019-03-18T14:51:46.953Z,60.61
2019-03-18T14:54:13.854Z,60.22
2019-03-18T14:56:46.915Z,59.34
2019-03-18T14:59:13.510Z,60.19
2019-03-18T15:01:41.708Z,61.60
2019-03-18T15:04:08.566Z,60.23
2019-03-18T15:06:45.036Z,59.72
2019-03-18T15:09:13.193Z,59.81
2019-03-18T15:11:40.870Z,58.88
2019-03-18T15:15:02.290Z,60.06
2019-03-18T15:21:09.407Z,59.90
2019-03-18T15:23:36.383Z,59.44
2019-03-18T15:26:05.195Z,55.96
2019-03-18T15:28:32.756Z,54.94
2019-03-18T15:31:13.469Z,55.15
2019-03-18T15:33:40.114Z,55.60
2019-03-18T15:36:06.699Z,55.46
2019-03-18T15:38:33.271Z,56.29
2019-03-18T15:40:59.922Z,63.49
2019-03-18T15:43:26.512Z,68.56
2019-03-18T15:45:53.074Z,69.44
2019-03-18T15:52:10.343Z,66.16
2019-03-18T15:54:29.065Z,65.51
2019-03-18T15:56:55.781Z,64.09
2019-03-18T16:00:17.992Z,65.59
2019-03-18T16:02:44.729Z,65.42
2019-03-18T16:06:04.319Z,66.81
2019-03-18T16:08:30.975Z,66.14
2019-03-18T16:10:58.068Z,65.53
2019-03-18T16:13:24.718Z,65.33
2019-03-18T16:16:02.146Z,63.28
2019-03-18T16:18:28.755Z,62.00
2019-03-18T16:20:55.910Z,61.11
2019-03-18T16:27:03.963Z,60.19
2019-03-18T16:29:32.335Z,60.17
2019-03-18T16:32:10.529Z,60.45
2019-03-18T16:34:27.548Z,59.74
2019-03-18T16:36:54.152Z,60.42
2019-03-18T16:39:20.803Z,60.32
2019-03-18T16:42:42.497Z,59.75
2019-03-18T16:45:10.482Z,60.31
2019-03-18T16:47:37.143Z,59.78
2019-03-18T16:50:25.135Z,60.37
2019-03-18T16:52:51.810Z,60.47
2019-03-18T16:55:18.563Z,60.85
2019-03-18T16:57:45.199Z,60.65
2019-03-18T17:00:14.346Z,60.20
2019-03-18T17:03:36.249Z,60.51
2019-03-18T17:06:03.215Z,60.76
2019-03-18T17:08:30.190Z,60.94
2019-03-18T17:10:56.864Z,60.86
2019-03-18T17:17:03.987Z,60.72
2019-03-18T17:20:18.999Z,60.88
2019-03-18T17:26:26.201Z,61.19
2019-03-18T17:28:52.923Z,61.27
2019-03-18T17:31:19.880Z,61.49
2019-03-18T17:33:46.977Z,61.69
2019-03-18T17:36:15.088Z,61.51
2019-03-18T17:38:41.660Z,61.77
2019-03-18T17:41:09.328Z,61.94
2019-03-18T17:43:36.234Z,61.94
2019-03-18T17:46:03.038Z,61.96
2019-03-18T17:48:29.553Z,61.79
2019-03-18T17:50:56.109Z,61.43
2019-03-18T17:53:23.797Z,61.54
2019-03-18T17:55:50.574Z,62.39
2019-03-18T17:58:21.022Z,62.83
2019-03-18T18:00:49.871Z,63.15
2019-03-18T18:03:16.888Z,64.46
2019-03-18T18:05:43.406Z,64.88
2019-03-18T18:08:10.055Z,66.06
2019-03-18T18:10:36.793Z,66.36
2019-03-18T18:13:03.589Z,66.17
2019-03-18T18:19:10.550Z,66.25
2019-03-18T18:21:37.274Z,66.23
2019-03-18T18:24:03.954Z,65.87
2019-03-18T18:26:30.725Z,65.13
2019-03-18T18:28:57.354Z,64.63
2019-03-18T18:31:24.013Z,64.80
2019-03-18T18:33:50.929Z,65.37
2019-03-18T18:36:17.675Z,65.59
2019-03-18T18:38:44.476Z,64.86
2019-03-18T18:41:13.854Z,64.57
2019-03-18T18:43:42.525Z,64.79
2019-03-18T18:46:09.607Z,65.12
2019-03-18T18:48:36.202Z,65.41
2019-03-18T18:51:03.089Z,66.21
2019-03-18T18:53:29.629Z,66.60
2019-03-18T18:55:57.224Z,65.87
2019-03-18T18:58:23.878Z,66.51
2019-03-18T19:01:23.413Z,66.67
2019-03-18T19:03:50.012Z,67.21
2019-03-18T19:09:56.457Z,68.02
2019-03-18T19:16:04.078Z,68.48
2019-03-18T19:22:10.792Z,68.77
2019-03-18T19:24:37.442Z,68.93
2019-03-18T19:27:04.172Z,69.03
2019-03-18T19:29:30.827Z,69.13
2019-03-18T19:31:57.867Z,68.11
2019-03-18T19:34:24.491Z,68.02
2019-03-18T19:36:51.258Z,68.03
2019-03-18T19:39:17.852Z,67.72
2019-03-18T19:42:39.325Z,67.82
2019-03-18T19:45:07.171Z,67.78
2019-03-18T19:47:33.922Z,68.00
2019-03-18T19:50:00.811Z,68.58
2019-03-18T19:52:27.511Z,69.12
2019-03-18T19:54:54.360Z,69.02
2019-03-18T19:57:21.486Z,69.46
2019-03-18T19:59:55.327Z,69.66
2019-03-18T20:02:23.693Z,69.72
2019-03-18T20:05:02.539Z,69.88
2019-03-18T20:11:09.871Z,70.18
2019-03-18T20:17:16.454Z,70.59
2019-03-18T20:19:43.135Z,70.40
2019-03-18T20:22:09.731Z,70.06
2019-03-18T20:25:03.888Z,69.44
2019-03-18T20:27:30.488Z,69.29
2019-03-18T20:29:57.377Z,68.93
2019-03-18T20:32:23.951Z,68.36
2019-03-18T20:34:50.784Z,68.13
2019-03-18T20:38:12.329Z,67.70
2019-03-18T20:40:39.273Z,67.62
2019-03-18T20:43:06.406Z,67.53
2019-03-18T20:45:33.210Z,68.07
2019-03-18T20:47:59.935Z,68.24
2019-03-18T20:50:26.456Z,68.49
2019-03-18T20:52:52.940Z,68.54
2019-03-18T20:56:00.755Z,68.28
2019-03-18T20:58:24.960Z,68.23
2019-03-18T21:00:53.473Z,68.38
2019-03-18T21:04:14.768Z,68.78
2019-03-18T21:06:41.392Z,69.15
2019-03-18T21:10:02.970Z,69.45
2019-03-18T21:13:17.050Z,69.71
2019-03-18T21:15:43.794Z,69.74
2019-03-18T21:18:10.593Z,69.76
2019-03-18T21:21:32.488Z,69.84
2019-03-18T21:23:59.306Z,69.83
2019-03-18T21:26:26.009Z,69.81
2019-03-18T21:28:52.509Z,69.60
2019-03-18T21:34:59.332Z,69.72
2019-03-18T21:38:08.404Z,69.87
2019-03-18T21:44:17.727Z,70.16
2019-03-18T21:46:44.673Z,70.33
2019-03-18T21:49:24.712Z,70.45
2019-03-18T21:55:33.035Z,70.63
2019-03-18T21:58:03.065Z,70.18
2019-03-18T22:00:32.089Z,70.16
2019-03-18T22:03:05.135Z,69.97
2019-03-18T22:05:51.464Z,70.28
2019-03-18T22:11:07.265Z,70.30
2019-03-18T22:17:13.824Z,70.09
2019-03-18T22:19:40.712Z,69.80
2019-03-18T22:23:02.277Z,70.15
2019-03-18T22:25:34.743Z,70.50
2019-03-18T22:28:01.913Z,70.83
2019-03-18T22:34:09.605Z,71.62
2019-03-18T22:36:36.447Z,72.31
2019-03-18T22:39:06.463Z,72.90
2019-03-18T22:42:27.710Z,73.23
2019-03-18T22:48:34.307Z,74.26
2019-03-18T22:51:01.260Z,74.90
2019-03-18T22:54:23.081Z,75.15
2019-03-18T22:56:50.048Z,75.33
2019-03-18T22:59:16.741Z,75.81
2019-03-18T23:01:43.444Z,76.03
2019-03-18T23:04:10.025Z,76.41
2019-03-18T23:06:36.998Z,76.59
2019-03-18T23:09:58.656Z,76.76
2019-03-18T23:12:25.184Z,76.74
2019-03-18T23:14:52.054Z,76.87
2019-03-18T23:18:14.264Z,76.97
2019-03-18T23:20:41.037Z,76.93
2019-03-18T23:26:48.885Z,76.87
2019-03-18T23:29:15.747Z,76.95
2019-03-18T23:31:44.510Z,76.92
2019-03-18T23:37:51.654Z,76.92
2019-03-18T23:40:18.503Z,77.18
2019-03-18T23:42:45.029Z,77.27
2019-03-18T23:45:12.126Z,77.59
2019-03-18T23:47:41.616Z,77.51
2019-03-18T23:53:48.270Z,77.99
2019-03-18T23:56:14.937Z,78.09
2019-03-18T23:58:41.869Z,78.14
